Dermott, Texas
Current Conditions -  °F | °C
As of 12:15 AM on Sunday 21 Dec 2014 (Local Time) from KSNK Reporting Station
Scattered Clouds Scattered Clouds  
Wind Chill: 39°   Ceiling: Unl
Heat Index: 43°   Visibility: 10mi
Dew Point: 40°   Wind: 7mph
Humidity: 90%   Direction: 150°SSE
Pressure: 30.07"   Gusts: NA
Location:  33.0123°N, 100.833°W
Report Text: KSNK 210615Z AUTO 15006KT 10SM SCT015 SCT020 06/05 A3007 RMK AO2 T00620046
Loading
Personal Weather Stations






























Interactive Weather Map New forecast layout! Learn more

10-Day Weather Forecast

Advertisements
Track Severe Weather on mobile